sensor_id;sensor_type;location;lat;lon;timestamp;temperature;humidity
13245;DHT22;6689;53.400;12.486;2024-01-07T00:02:07;-0.90;99.90
13245;DHT22;6689;53.400;12.486;2024-01-07T00:04:35;-1.00;99.90
13245;DHT22;6689;53.400;12.486;2024-01-07T00:07:06;-1.00;99.90
13245;DHT22;6689;53.400;12.486;2024-01-07T00:09:34;-1.00;99.90
13245;DHT22;6689;53.400;12.486;2024-01-07T00:12:01;-1.10;99.90
13245;DHT22;6689;53.400;12.486;2024-01-07T00:14:30;-1.20;99.90
13245;DHT22;6689;53.400;12.486;2024-01-07T00:16:57;-1.10;99.90
13245;DHT22;6689;53.400;12.486;2024-01-07T00:19:25;-1.20;99.90
13245;DHT22;6689;53.400;12.486;2024-01-07T00:21:52;-1.20;99.90
13245;DHT22;6689;53.400;12.486;2024-01-07T00:24:23;-1.20;99.90
13245;DHT22;6689;53.400;12.486;2024-01-07T00:26:53;-1.20;99.90
13245;DHT22;6689;53.400;12.486;2024-01-07T00:29:21;-1.30;99.90
13245;DHT22;6689;53.400;12.486;2024-01-07T00:31:48;-1.20;99.90
13245;DHT22;6689;53.400;12.486;2024-01-07T00:34:16;-1.20;99.90
13245;DHT22;6689;53.400;12.486;2024-01-07T00:36:43;-1.20;99.90
13245;DHT22;6689;53.400;12.486;2024-01-07T00:39:10;-1.10;99.90
13245;DHT22;6689;53.400;12.486;2024-01-07T00:41:39;-1.20;99.90
13245;DHT22;6689;53.400;12.486;2024-01-07T00:44:06;-1.20;99.90
13245;DHT22;6689;53.400;12.486;2024-01-07T00:46:34;-1.10;99.90
13245;DHT22;6689;53.400;12.486;2024-01-07T00:49:02;-1.10;99.90
13245;DHT22;6689;53.400;12.486;2024-01-07T00:51:29;-1.10;99.90
13245;DHT22;6689;53.400;12.486;2024-01-07T00:53:59;-1.00;99.90
13245;DHT22;6689;53.400;12.486;2024-01-07T00:56:27;-1.20;99.90
13245;DHT22;6689;53.400;12.486;2024-01-07T00:58:57;-1.00;99.90
13245;DHT22;6689;53.400;12.486;2024-01-07T01:01:25;-0.90;99.90
13245;DHT22;6689;53.400;12.486;2024-01-07T01:03:52;-0.80;99.90
13245;DHT22;6689;53.400;12.486;2024-01-07T01:06:19;-0.80;99.90
13245;DHT22;6689;53.400;12.486;2024-01-07T01:08:47;-0.90;99.90
13245;DHT22;6689;53.400;12.486;2024-01-07T01:11:14;-0.90;1.00
13245;DHT22;6689;53.400;12.486;2024-01-07T01:13:43;-0.80;99.90
13245;DHT22;6689;53.400;12.486;2024-01-07T01:16:11;-0.70;99.90
13245;DHT22;6689;53.400;12.486;2024-01-07T01:18:39;-0.60;99.90
13245;DHT22;6689;53.400;12.486;2024-01-07T01:21:08;-0.70;99.90
13245;DHT22;6689;53.400;12.486;2024-01-07T01:23:37;-0.60;99.90
13245;DHT22;6689;53.400;12.486;2024-01-07T01:26:05;-0.70;99.90
13245;DHT22;6689;53.400;12.486;2024-01-07T01:28:33;-0.60;99.90
13245;DHT22;6689;53.400;12.486;2024-01-07T01:31:00;-0.60;99.90
13245;DHT22;6689;53.400;12.486;2024-01-07T01:33:29;-0.60;99.90
13245;DHT22;6689;53.400;12.486;2024-01-07T01:35:56;-0.50;99.90
13245;DHT22;6689;53.400;12.486;2024-01-07T01:38:23;-0.70;99.90
13245;DHT22;6689;53.400;12.486;2024-01-07T01:40:54;-0.60;99.90
13245;DHT22;6689;53.400;12.486;2024-01-07T01:43:25;-0.60;99.90
13245;DHT22;6689;53.400;12.486;2024-01-07T01:45:52;-0.40;99.90
13245;DHT22;6689;53.400;12.486;2024-01-07T01:48:20;-0.70;1.00
13245;DHT22;6689;53.400;12.486;2024-01-07T01:50:53;-0.70;1.00
13245;DHT22;6689;53.400;12.486;2024-01-07T01:53:24;-0.70;1.00
13245;DHT22;6689;53.400;12.486;2024-01-07T01:55:53;-0.70;1.00
13245;DHT22;6689;53.400;12.486;2024-01-07T01:58:22;-0.70;1.00
13245;DHT22;6689;53.400;12.486;2024-01-07T02:00:50;-0.70;1.00
13245;DHT22;6689;53.400;12.486;2024-01-07T02:03:18;-0.70;1.00
13245;DHT22;6689;53.400;12.486;2024-01-07T02:05:45;-0.70;1.00
13245;DHT22;6689;53.400;12.486;2024-01-07T02:08:15;-0.60;1.00
13245;DHT22;6689;53.400;12.486;2024-01-07T02:10:43;-0.60;1.00
13245;DHT22;6689;53.400;12.486;2024-01-07T02:13:11;-0.60;1.00
13245;DHT22;6689;53.400;12.486;2024-01-07T02:15:38;-0.60;1.00
13245;DHT22;6689;53.400;12.486;2024-01-07T02:18:05;-0.60;1.00
13245;DHT22;6689;53.400;12.486;2024-01-07T02:20:33;-0.70;1.00
13245;DHT22;6689;53.400;12.486;2024-01-07T02:23:01;-0.60;1.00
13245;DHT22;6689;53.400;12.486;2024-01-07T02:25:35;-0.50;1.00
13245;DHT22;6689;53.400;12.486;2024-01-07T02:28:02;-0.40;1.00
13245;DHT22;6689;53.400;12.486;2024-01-07T02:30:30;-0.40;1.00
13245;DHT22;6689;53.400;12.486;2024-01-07T02:33:01;-0.30;1.00
13245;DHT22;6689;53.400;12.486;2024-01-07T02:35:30;-0.30;1.00
13245;DHT22;6689;53.400;12.486;2024-01-07T02:37:57;-0.30;1.00
13245;DHT22;6689;53.400;12.486;2024-01-07T02:40:25;-0.20;1.00
13245;DHT22;6689;53.400;12.486;2024-01-07T02:42:54;-0.30;1.00
13245;DHT22;6689;53.400;12.486;2024-01-07T02:45:22;-0.30;1.00
13245;DHT22;6689;53.400;12.486;2024-01-07T02:47:49;-0.30;1.00
13245;DHT22;6689;53.400;12.486;2024-01-07T02:50:16;-0.30;1.00
13245;DHT22;6689;53.400;12.486;2024-01-07T02:52:43;-0.30;1.00
13245;DHT22;6689;53.400;12.486;2024-01-07T02:55:11;-0.30;1.00
13245;DHT22;6689;53.400;12.486;2024-01-07T02:57:38;-0.30;1.00
13245;DHT22;6689;53.400;12.486;2024-01-07T03:00:09;-0.20;1.00
13245;DHT22;6689;53.400;12.486;2024-01-07T03:02:36;-0.30;1.00
13245;DHT22;6689;53.400;12.486;2024-01-07T03:05:04;-0.30;1.00
13245;DHT22;6689;53.400;12.486;2024-01-07T03:07:32;-0.20;1.00
13245;DHT22;6689;53.400;12.486;2024-01-07T03:10:00;-0.30;1.00
13245;DHT22;6689;53.400;12.486;2024-01-07T03:12:27;-0.30;1.00
13245;DHT22;6689;53.400;12.486;2024-01-07T03:14:54;-0.40;1.00
13245;DHT22;6689;53.400;12.486;2024-01-07T03:17:23;-0.20;1.00
13245;DHT22;6689;53.400;12.486;2024-01-07T03:19:50;-0.30;1.00
13245;DHT22;6689;53.400;12.486;2024-01-07T03:22:18;-0.20;1.00
13245;DHT22;6689;53.400;12.486;2024-01-07T03:24:45;-0.20;1.00
13245;DHT22;6689;53.400;12.486;2024-01-07T03:27:12;-0.20;1.00
13245;DHT22;6689;53.400;12.486;2024-01-07T03:29:40;-0.20;1.00
13245;DHT22;6689;53.400;12.486;2024-01-07T03:32:07;-0.20;1.00
13245;DHT22;6689;53.400;12.486;2024-01-07T03:34:36;-0.20;1.00
13245;DHT22;6689;53.400;12.486;2024-01-07T03:37:03;-0.30;1.00
13245;DHT22;6689;53.400;12.486;2024-01-07T03:39:32;-0.20;1.00
13245;DHT22;6689;53.400;12.486;2024-01-07T03:42:00;-0.20;1.00
13245;DHT22;6689;53.400;12.486;2024-01-07T03:44:27;-0.10;1.00
13245;DHT22;6689;53.400;12.486;2024-01-07T03:46:54;-0.10;1.00
13245;DHT22;6689;53.400;12.486;2024-01-07T03:49:22;-0.10;1.00
13245;DHT22;6689;53.400;12.486;2024-01-07T03:51:50;0.00;1.00
13245;DHT22;6689;53.400;12.486;2024-01-07T03:54:18;-0.10;1.00
13245;DHT22;6689;53.400;12.486;2024-01-07T03:56:48;-0.10;1.00
13245;DHT22;6689;53.400;12.486;2024-01-07T03:59:15;-0.10;1.00
13245;DHT22;6689;53.400;12.486;2024-01-07T04:01:42;-0.10;1.00
13245;DHT22;6689;53.400;12.486;2024-01-07T04:04:09;-0.10;1.00
13245;DHT22;6689;53.400;12.486;2024-01-07T04:06:37;-0.10;1.00
13245;DHT22;6689;53.400;12.486;2024-01-07T04:09:05;-0.10;1.00
13245;DHT22;6689;53.400;12.486;2024-01-07T04:11:39;-0.10;1.00
13245;DHT22;6689;53.400;12.486;2024-01-07T04:14:07;-0.10;1.00
13245;DHT22;6689;53.400;12.486;2024-01-07T04:16:35;-0.10;1.00
13245;DHT22;6689;53.400;12.486;2024-01-07T04:19:02;-0.20;1.00
13245;DHT22;6689;53.400;12.486;2024-01-07T04:21:30;-0.10;1.00
13245;DHT22;6689;53.400;12.486;2024-01-07T04:23:57;-0.10;1.00
13245;DHT22;6689;53.400;12.486;2024-01-07T04:26:26;-0.10;1.00
13245;DHT22;6689;53.400;12.486;2024-01-07T04:28:53;-0.10;1.00
13245;DHT22;6689;53.400;12.486;2024-01-07T04:31:20;-0.10;1.00
13245;DHT22;6689;53.400;12.486;2024-01-07T04:33:47;-0.10;1.00
13245;DHT22;6689;53.400;12.486;2024-01-07T04:36:16;-0.10;1.00
13245;DHT22;6689;53.400;12.486;2024-01-07T04:38:44;-0.10;1.00
13245;DHT22;6689;53.400;12.486;2024-01-07T04:41:11;-0.10;1.00
13245;DHT22;6689;53.400;12.486;2024-01-07T04:43:42;-0.10;1.00
13245;DHT22;6689;53.400;12.486;2024-01-07T04:46:11;0.00;1.00
13245;DHT22;6689;53.400;12.486;2024-01-07T04:48:38;-0.10;1.00
13245;DHT22;6689;53.400;12.486;2024-01-07T04:51:07;-0.10;1.00
13245;DHT22;6689;53.400;12.486;2024-01-07T04:53:35;-0.10;1.00
13245;DHT22;6689;53.400;12.486;2024-01-07T04:56:03;-0.10;1.00
13245;DHT22;6689;53.400;12.486;2024-01-07T04:58:31;-0.10;1.00
13245;DHT22;6689;53.400;12.486;2024-01-07T05:00:59;0.00;1.00
13245;DHT22;6689;53.400;12.486;2024-01-07T05:03:27;0.00;1.00
13245;DHT22;6689;53.400;12.486;2024-01-07T05:05:54;-0.10;1.00
13245;DHT22;6689;53.400;12.486;2024-01-07T05:08:22;0.00;1.00
13245;DHT22;6689;53.400;12.486;2024-01-07T05:10:49;0.00;1.00
13245;DHT22;6689;53.400;12.486;2024-01-07T05:13:17;0.00;1.00
13245;DHT22;6689;53.400;12.486;2024-01-07T05:15:45;0.00;1.00
13245;DHT22;6689;53.400;12.486;2024-01-07T05:18:20;0.00;1.00
13245;DHT22;6689;53.400;12.486;2024-01-07T05:20:48;0.00;1.00
13245;DHT22;6689;53.400;12.486;2024-01-07T05:23:15;0.00;1.00
13245;DHT22;6689;53.400;12.486;2024-01-07T05:25:43;0.00;1.00
13245;DHT22;6689;53.400;12.486;2024-01-07T05:28:10;0.00;1.00
13245;DHT22;6689;53.400;12.486;2024-01-07T05:30:38;0.10;1.00
13245;DHT22;6689;53.400;12.486;2024-01-07T05:33:06;0.10;1.00
13245;DHT22;6689;53.400;12.486;2024-01-07T05:35:35;0.00;1.00
13245;DHT22;6689;53.400;12.486;2024-01-07T05:38:02;0.00;1.00
13245;DHT22;6689;53.400;12.486;2024-01-07T05:40:29;0.10;1.00
13245;DHT22;6689;53.400;12.486;2024-01-07T05:42:58;0.10;1.00
13245;DHT22;6689;53.400;12.486;2024-01-07T05:45:25;0.10;1.00
13245;DHT22;6689;53.400;12.486;2024-01-07T05:47:52;0.20;1.00
13245;DHT22;6689;53.400;12.486;2024-01-07T05:50:21;0.20;1.00
13245;DHT22;6689;53.400;12.486;2024-01-07T05:52:50;0.20;1.00
13245;DHT22;6689;53.400;12.486;2024-01-07T05:55:17;0.20;1.00
13245;DHT22;6689;53.400;12.486;2024-01-07T05:57:45;0.20;1.00
13245;DHT22;6689;53.400;12.486;2024-01-07T06:00:14;0.20;1.00
13245;DHT22;6689;53.400;12.486;2024-01-07T06:02:42;0.20;1.00
13245;DHT22;6689;53.400;12.486;2024-01-07T06:05:09;0.20;1.00
13245;DHT22;6689;53.400;12.486;2024-01-07T06:07:36;0.20;1.00
13245;DHT22;6689;53.400;12.486;2024-01-07T06:10:06;0.20;1.00
13245;DHT22;6689;53.400;12.486;2024-01-07T06:12:34;0.20;1.00
13245;DHT22;6689;53.400;12.486;2024-01-07T06:15:01;0.20;1.00
13245;DHT22;6689;53.400;12.486;2024-01-07T06:17:28;0.20;1.00
13245;DHT22;6689;53.400;12.486;2024-01-07T06:19:56;0.20;1.00
13245;DHT22;6689;53.400;12.486;2024-01-07T06:22:23;0.20;1.00
13245;DHT22;6689;53.400;12.486;2024-01-07T06:24:50;0.20;1.00
13245;DHT22;6689;53.400;12.486;2024-01-07T06:27:19;0.30;1.00
13245;DHT22;6689;53.400;12.486;2024-01-07T06:29:46;0.20;1.00
13245;DHT22;6689;53.400;12.486;2024-01-07T06:32:13;0.30;1.00
13245;DHT22;6689;53.400;12.486;2024-01-07T06:34:41;0.30;1.00
13245;DHT22;6689;53.400;12.486;2024-01-07T06:37:08;0.30;1.00
13245;DHT22;6689;53.400;12.486;2024-01-07T06:39:36;0.30;1.00
13245;DHT22;6689;53.400;12.486;2024-01-07T06:42:04;0.30;1.00
13245;DHT22;6689;53.400;12.486;2024-01-07T06:44:33;0.30;1.00
13245;DHT22;6689;53.400;12.486;2024-01-07T06:47:00;0.30;1.00
13245;DHT22;6689;53.400;12.486;2024-01-07T06:49:27;0.30;1.00
13245;DHT22;6689;53.400;12.486;2024-01-07T06:51:55;0.30;1.00
13245;DHT22;6689;53.400;12.486;2024-01-07T06:54:23;0.30;1.00
13245;DHT22;6689;53.400;12.486;2024-01-07T06:56:50;0.30;1.00
13245;DHT22;6689;53.400;12.486;2024-01-07T06:59:17;0.30;1.00
13245;DHT22;6689;53.400;12.486;2024-01-07T07:01:46;0.30;1.00
13245;DHT22;6689;53.400;12.486;2024-01-07T07:04:13;0.40;1.00
13245;DHT22;6689;53.400;12.486;2024-01-07T07:06:40;0.40;1.00
13245;DHT22;6689;53.400;12.486;2024-01-07T07:09:07;0.70;1.00
13245;DHT22;6689;53.400;12.486;2024-01-07T07:11:37;0.40;1.00
13245;DHT22;6689;53.400;12.486;2024-01-07T07:14:04;0.40;1.00
13245;DHT22;6689;53.400;12.486;2024-01-07T07:16:33;0.40;1.00
13245;DHT22;6689;53.400;12.486;2024-01-07T07:19:01;0.40;1.00
13245;DHT22;6689;53.400;12.486;2024-01-07T07:21:29;0.40;1.00
13245;DHT22;6689;53.400;12.486;2024-01-07T07:23:56;0.40;1.00
13245;DHT22;6689;53.400;12.486;2024-01-07T07:26:23;0.50;1.00
13245;DHT22;6689;53.400;12.486;2024-01-07T07:28:50;0.50;1.00
13245;DHT22;6689;53.400;12.486;2024-01-07T07:31:17;0.50;1.00
13245;DHT22;6689;53.400;12.486;2024-01-07T07:33:45;0.50;1.00
13245;DHT22;6689;53.400;12.486;2024-01-07T07:36:14;0.50;1.00
13245;DHT22;6689;53.400;12.486;2024-01-07T07:38:41;0.50;1.00
13245;DHT22;6689;53.400;12.486;2024-01-07T07:41:09;0.50;1.00
13245;DHT22;6689;53.400;12.486;2024-01-07T07:43:36;0.60;1.00
13245;DHT22;6689;53.400;12.486;2024-01-07T07:46:04;0.60;1.00
13245;DHT22;6689;53.400;12.486;2024-01-07T07:48:31;0.60;1.00
13245;DHT22;6689;53.400;12.486;2024-01-07T07:51:00;0.60;1.00
13245;DHT22;6689;53.400;12.486;2024-01-07T07:53:29;0.50;1.00
13245;DHT22;6689;53.400;12.486;2024-01-07T07:55:56;0.50;1.00
13245;DHT22;6689;53.400;12.486;2024-01-07T07:58:24;0.50;1.00
13245;DHT22;6689;53.400;12.486;2024-01-07T08:00:52;0.60;1.00
13245;DHT22;6689;53.400;12.486;2024-01-07T08:03:21;0.50;1.00
13245;DHT22;6689;53.400;12.486;2024-01-07T08:05:48;0.60;1.00
13245;DHT22;6689;53.400;12.486;2024-01-07T08:08:16;0.60;1.00
13245;DHT22;6689;53.400;12.486;2024-01-07T08:10:45;0.70;1.00
13245;DHT22;6689;53.400;12.486;2024-01-07T08:13:12;0.70;1.00
13245;DHT22;6689;53.400;12.486;2024-01-07T08:15:41;0.70;1.00
13245;DHT22;6689;53.400;12.486;2024-01-07T08:18:08;0.80;1.00
13245;DHT22;6689;53.400;12.486;2024-01-07T08:20:37;0.80;1.00
13245;DHT22;6689;53.400;12.486;2024-01-07T08:23:05;0.80;1.00
13245;DHT22;6689;53.400;12.486;2024-01-07T08:25:33;0.80;1.00
13245;DHT22;6689;53.400;12.486;2024-01-07T08:28:01;0.90;1.00
13245;DHT22;6689;53.400;12.486;2024-01-07T08:30:29;0.80;1.00
13245;DHT22;6689;53.400;12.486;2024-01-07T08:32:56;0.90;1.00
13245;DHT22;6689;53.400;12.486;2024-01-07T08:35:23;0.90;1.00
13245;DHT22;6689;53.400;12.486;2024-01-07T08:37:50;0.90;1.00
13245;DHT22;6689;53.400;12.486;2024-01-07T08:40:18;0.90;1.00
13245;DHT22;6689;53.400;12.486;2024-01-07T08:42:47;0.90;1.00
13245;DHT22;6689;53.400;12.486;2024-01-07T08:45:16;0.90;1.00
13245;DHT22;6689;53.400;12.486;2024-01-07T08:47:44;0.90;1.00
13245;DHT22;6689;53.400;12.486;2024-01-07T08:50:13;0.90;1.00
13245;DHT22;6689;53.400;12.486;2024-01-07T08:52:41;0.90;1.00
13245;DHT22;6689;53.400;12.486;2024-01-07T08:55:08;1.00;1.00
13245;DHT22;6689;53.400;12.486;2024-01-07T08:57:36;1.00;1.00
13245;DHT22;6689;53.400;12.486;2024-01-07T09:00:05;1.10;1.00
13245;DHT22;6689;53.400;12.486;2024-01-07T09:02:36;1.10;1.00
13245;DHT22;6689;53.400;12.486;2024-01-07T09:05:03;1.10;1.00
13245;DHT22;6689;53.400;12.486;2024-01-07T09:07:31;1.10;1.00
13245;DHT22;6689;53.400;12.486;2024-01-07T09:09:59;1.10;1.00
13245;DHT22;6689;53.400;12.486;2024-01-07T09:12:27;1.10;1.00
13245;DHT22;6689;53.400;12.486;2024-01-07T09:14:54;1.10;1.00
13245;DHT22;6689;53.400;12.486;2024-01-07T09:17:22;0.90;1.00
13245;DHT22;6689;53.400;12.486;2024-01-07T09:19:50;1.10;1.00
13245;DHT22;6689;53.400;12.486;2024-01-07T09:22:18;1.20;1.00
13245;DHT22;6689;53.400;12.486;2024-01-07T09:24:45;1.10;1.00
13245;DHT22;6689;53.400;12.486;2024-01-07T09:27:12;1.20;1.00
13245;DHT22;6689;53.400;12.486;2024-01-07T09:29:40;1.20;1.00
13245;DHT22;6689;53.400;12.486;2024-01-07T09:32:07;1.20;1.00
13245;DHT22;6689;53.400;12.486;2024-01-07T09:34:34;1.20;1.00
13245;DHT22;6689;53.400;12.486;2024-01-07T09:37:04;1.20;1.00
13245;DHT22;6689;53.400;12.486;2024-01-07T09:39:31;1.20;1.00
13245;DHT22;6689;53.400;12.486;2024-01-07T09:41:58;1.20;1.00
13245;DHT22;6689;53.400;12.486;2024-01-07T09:44:26;1.20;1.00
13245;DHT22;6689;53.400;12.486;2024-01-07T09:46:54;1.20;1.00
13245;DHT22;6689;53.400;12.486;2024-01-07T09:49:23;1.20;1.00
13245;DHT22;6689;53.400;12.486;2024-01-07T09:51:53;1.30;1.00
13245;DHT22;6689;53.400;12.486;2024-01-07T09:54:27;1.20;1.00
13245;DHT22;6689;53.400;12.486;2024-01-07T09:57:00;1.30;1.00
13245;DHT22;6689;53.400;12.486;2024-01-07T09:59:28;1.30;1.00
13245;DHT22;6689;53.400;12.486;2024-01-07T10:01:55;1.30;1.00
13245;DHT22;6689;53.400;12.486;2024-01-07T10:04:24;1.30;1.00
13245;DHT22;6689;53.400;12.486;2024-01-07T10:06:51;1.40;1.00
13245;DHT22;6689;53.400;12.486;2024-01-07T10:09:22;1.30;1.00
13245;DHT22;6689;53.400;12.486;2024-01-07T10:11:51;1.40;1.00
13245;DHT22;6689;53.400;12.486;2024-01-07T10:14:18;1.40;1.00
13245;DHT22;6689;53.400;12.486;2024-01-07T10:16:48;1.30;1.00
13245;DHT22;6689;53.400;12.486;2024-01-07T10:19:20;1.30;99.90
13245;DHT22;6689;53.400;12.486;2024-01-07T10:21:59;1.30;99.90
13245;DHT22;6689;53.400;12.486;2024-01-07T10:24:35;1.40;99.90
13245;DHT22;6689;53.400;12.486;2024-01-07T10:27:06;1.40;99.90
13245;DHT22;6689;53.400;12.486;2024-01-07T10:29:34;1.40;99.90
13245;DHT22;6689;53.400;12.486;2024-01-07T10:32:02;1.40;99.90
13245;DHT22;6689;53.400;12.486;2024-01-07T10:34:32;1.40;99.90
13245;DHT22;6689;53.400;12.486;2024-01-07T10:37:00;1.40;99.90
13245;DHT22;6689;53.400;12.486;2024-01-07T10:39:28;1.40;99.90
13245;DHT22;6689;53.400;12.486;2024-01-07T10:41:56;1.40;99.90
13245;DHT22;6689;53.400;12.486;2024-01-07T10:44:30;1.40;99.90
13245;DHT22;6689;53.400;12.486;2024-01-07T10:46:58;1.40;99.90
13245;DHT22;6689;53.400;12.486;2024-01-07T10:49:27;1.50;99.90
13245;DHT22;6689;53.400;12.486;2024-01-07T10:52:02;1.40;99.90
13245;DHT22;6689;53.400;12.486;2024-01-07T10:54:31;1.40;99.90
13245;DHT22;6689;53.400;12.486;2024-01-07T10:57:01;1.40;99.90
13245;DHT22;6689;53.400;12.486;2024-01-07T10:59:34;1.40;99.90
13245;DHT22;6689;53.400;12.486;2024-01-07T11:02:03;1.50;99.90
13245;DHT22;6689;53.400;12.486;2024-01-07T11:04:37;1.50;99.90
13245;DHT22;6689;53.400;12.486;2024-01-07T11:07:12;1.50;99.90
13245;DHT22;6689;53.400;12.486;2024-01-07T11:09:50;1.50;99.90
13245;DHT22;6689;53.400;12.486;2024-01-07T11:12:21;1.40;99.90
13245;DHT22;6689;53.400;12.486;2024-01-07T11:14:51;1.40;99.90
13245;DHT22;6689;53.400;12.486;2024-01-07T11:17:41;1.40;99.90
13245;DHT22;6689;53.400;12.486;2024-01-07T11:20:20;1.40;99.90
13245;DHT22;6689;53.400;12.486;2024-01-07T11:22:48;1.30;99.90
13245;DHT22;6689;53.400;12.486;2024-01-07T11:25:29;1.40;99.90
13245;DHT22;6689;53.400;12.486;2024-01-07T11:28:00;1.30;99.90
13245;DHT22;6689;53.400;12.486;2024-01-07T11:30:29;1.30;99.90
13245;DHT22;6689;53.400;12.486;2024-01-07T11:32:58;1.30;99.90
13245;DHT22;6689;53.400;12.486;2024-01-07T11:35:55;1.30;99.90
13245;DHT22;6689;53.400;12.486;2024-01-07T11:38:23;1.40;1.00
13245;DHT22;6689;53.400;12.486;2024-01-07T11:40:52;1.40;99.90
13245;DHT22;6689;53.400;12.486;2024-01-07T11:43:20;1.40;99.90
13245;DHT22;6689;53.400;12.486;2024-01-07T11:45:49;1.40;99.90
13245;DHT22;6689;53.400;12.486;2024-01-07T11:48:17;1.40;99.90
13245;DHT22;6689;53.400;12.486;2024-01-07T11:50:46;1.40;99.90
13245;DHT22;6689;53.400;12.486;2024-01-07T11:53:13;1.40;99.90
13245;DHT22;6689;53.400;12.486;2024-01-07T11:55:41;1.40;99.90
13245;DHT22;6689;53.400;12.486;2024-01-07T11:58:10;1.40;99.90
13245;DHT22;6689;53.400;12.486;2024-01-07T12:00:38;1.50;99.90
13245;DHT22;6689;53.400;12.486;2024-01-07T12:03:06;1.50;99.90
13245;DHT22;6689;53.400;12.486;2024-01-07T12:05:34;1.50;99.90
13245;DHT22;6689;53.400;12.486;2024-01-07T12:08:01;1.50;99.90
13245;DHT22;6689;53.400;12.486;2024-01-07T12:10:30;1.50;99.90
13245;DHT22;6689;53.400;12.486;2024-01-07T12:12:58;1.50;99.90
13245;DHT22;6689;53.400;12.486;2024-01-07T12:15:25;1.50;99.90
13245;DHT22;6689;53.400;12.486;2024-01-07T12:17:57;1.50;99.90
13245;DHT22;6689;53.400;12.486;2024-01-07T12:20:29;1.50;99.90
13245;DHT22;6689;53.400;12.486;2024-01-07T12:23:05;1.50;99.90
13245;DHT22;6689;53.400;12.486;2024-01-07T12:25:32;1.50;99.90
13245;DHT22;6689;53.400;12.486;2024-01-07T12:28:00;1.50;99.90
13245;DHT22;6689;53.400;12.486;2024-01-07T12:30:28;1.50;99.90
13245;DHT22;6689;53.400;12.486;2024-01-07T12:32:57;1.40;99.90
13245;DHT22;6689;53.400;12.486;2024-01-07T12:35:26;1.50;99.90
13245;DHT22;6689;53.400;12.486;2024-01-07T12:37:55;1.50;99.90
13245;DHT22;6689;53.400;12.486;2024-01-07T12:40:23;1.50;99.90
13245;DHT22;6689;53.400;12.486;2024-01-07T12:42:54;1.40;99.90
13245;DHT22;6689;53.400;12.486;2024-01-07T12:45:23;1.40;99.90
13245;DHT22;6689;53.400;12.486;2024-01-07T12:47:50;1.40;99.90
13245;DHT22;6689;53.400;12.486;2024-01-07T12:50:18;1.40;99.90
13245;DHT22;6689;53.400;12.486;2024-01-07T12:52:50;1.50;99.90
13245;DHT22;6689;53.400;12.486;2024-01-07T12:55:19;1.40;99.90
13245;DHT22;6689;53.400;12.486;2024-01-07T12:57:48;1.40;99.90
13245;DHT22;6689;53.400;12.486;2024-01-07T13:00:17;1.30;99.90
13245;DHT22;6689;53.400;12.486;2024-01-07T13:02:44;1.40;99.90
13245;DHT22;6689;53.400;12.486;2024-01-07T13:05:13;1.40;99.90
13245;DHT22;6689;53.400;12.486;2024-01-07T13:07:43;1.40;99.90
13245;DHT22;6689;53.400;12.486;2024-01-07T13:10:10;1.40;99.90
13245;DHT22;6689;53.400;12.486;2024-01-07T13:12:39;1.30;99.90
13245;DHT22;6689;53.400;12.486;2024-01-07T13:15:07;1.30;99.90
13245;DHT22;6689;53.400;12.486;2024-01-07T13:17:35;1.40;99.90
13245;DHT22;6689;53.400;12.486;2024-01-07T13:20:02;1.40;99.90
13245;DHT22;6689;53.400;12.486;2024-01-07T13:22:33;1.20;99.90
13245;DHT22;6689;53.400;12.486;2024-01-07T13:25:01;1.20;99.90
13245;DHT22;6689;53.400;12.486;2024-01-07T13:27:28;1.20;99.90
13245;DHT22;6689;53.400;12.486;2024-01-07T13:29:58;1.20;99.90
13245;DHT22;6689;53.400;12.486;2024-01-07T13:32:25;1.20;99.90
13245;DHT22;6689;53.400;12.486;2024-01-07T13:34:53;1.20;99.90
13245;DHT22;6689;53.400;12.486;2024-01-07T13:37:20;1.20;99.90
13245;DHT22;6689;53.400;12.486;2024-01-07T13:39:48;1.20;99.90
13245;DHT22;6689;53.400;12.486;2024-01-07T13:42:16;1.10;1.00
13245;DHT22;6689;53.400;12.486;2024-01-07T13:44:43;1.00;1.00
13245;DHT22;6689;53.400;12.486;2024-01-07T13:47:14;1.10;1.00
13245;DHT22;6689;53.400;12.486;2024-01-07T13:49:42;1.10;1.00
13245;DHT22;6689;53.400;12.486;2024-01-07T13:52:11;1.00;1.00
13245;DHT22;6689;53.400;12.486;2024-01-07T13:54:38;1.10;1.00
13245;DHT22;6689;53.400;12.486;2024-01-07T13:57:06;1.10;1.00
13245;DHT22;6689;53.400;12.486;2024-01-07T13:59:33;1.00;1.00
13245;DHT22;6689;53.400;12.486;2024-01-07T14:02:01;1.00;1.00
13245;DHT22;6689;53.400;12.486;2024-01-07T14:04:33;1.00;1.00
13245;DHT22;6689;53.400;12.486;2024-01-07T14:07:01;1.00;1.00
13245;DHT22;6689;53.400;12.486;2024-01-07T14:09:28;0.90;1.00
13245;DHT22;6689;53.400;12.486;2024-01-07T14:11:57;0.90;1.00
13245;DHT22;6689;53.400;12.486;2024-01-07T14:14:26;0.90;1.00
13245;DHT22;6689;53.400;12.486;2024-01-07T14:16:53;0.90;1.00
13245;DHT22;6689;53.400;12.486;2024-01-07T14:19:20;0.90;1.00
13245;DHT22;6689;53.400;12.486;2024-01-07T14:21:50;0.90;1.00
13245;DHT22;6689;53.400;12.486;2024-01-07T14:24:18;0.90;1.00
13245;DHT22;6689;53.400;12.486;2024-01-07T14:26:45;0.90;1.00
13245;DHT22;6689;53.400;12.486;2024-01-07T14:29:12;0.90;1.00
13245;DHT22;6689;53.400;12.486;2024-01-07T14:31:40;0.90;1.00
13245;DHT22;6689;53.400;12.486;2024-01-07T14:34:07;0.80;1.00
13245;DHT22;6689;53.400;12.486;2024-01-07T14:36:34;0.90;1.00
13245;DHT22;6689;53.400;12.486;2024-01-07T14:39:07;0.80;1.00
13245;DHT22;6689;53.400;12.486;2024-01-07T14:41:35;0.80;1.00
13245;DHT22;6689;53.400;12.486;2024-01-07T14:44:03;0.80;1.00
13245;DHT22;6689;53.400;12.486;2024-01-07T14:46:30;0.80;1.00
13245;DHT22;6689;53.400;12.486;2024-01-07T14:48:58;0.80;1.00
13245;DHT22;6689;53.400;12.486;2024-01-07T14:51:25;0.80;1.00
13245;DHT22;6689;53.400;12.486;2024-01-07T14:53:52;0.80;1.00
13245;DHT22;6689;53.400;12.486;2024-01-07T14:56:21;0.80;1.00
13245;DHT22;6689;53.400;12.486;2024-01-07T14:58:48;0.80;1.00
13245;DHT22;6689;53.400;12.486;2024-01-07T15:01:17;0.80;1.00
13245;DHT22;6689;53.400;12.486;2024-01-07T15:03:45;0.80;1.00
13245;DHT22;6689;53.400;12.486;2024-01-07T15:06:12;0.80;1.00
13245;DHT22;6689;53.400;12.486;2024-01-07T15:08:41;0.80;1.00
13245;DHT22;6689;53.400;12.486;2024-01-07T15:11:09;0.80;1.00
13245;DHT22;6689;53.400;12.486;2024-01-07T15:13:38;0.70;1.00
13245;DHT22;6689;53.400;12.486;2024-01-07T15:16:06;0.70;1.00
13245;DHT22;6689;53.400;12.486;2024-01-07T15:18:33;0.70;1.00
13245;DHT22;6689;53.400;12.486;2024-01-07T15:21:00;0.70;1.00
13245;DHT22;6689;53.400;12.486;2024-01-07T15:23:28;0.70;1.00
13245;DHT22;6689;53.400;12.486;2024-01-07T15:25:55;0.70;1.00
13245;DHT22;6689;53.400;12.486;2024-01-07T15:28:23;0.70;1.00
13245;DHT22;6689;53.400;12.486;2024-01-07T15:30:51;0.60;1.00
13245;DHT22;6689;53.400;12.486;2024-01-07T15:33:19;0.60;1.00
13245;DHT22;6689;53.400;12.486;2024-01-07T15:35:47;0.60;1.00
13245;DHT22;6689;53.400;12.486;2024-01-07T15:38:14;0.60;1.00
13245;DHT22;6689;53.400;12.486;2024-01-07T15:40:41;0.60;1.00
13245;DHT22;6689;53.400;12.486;2024-01-07T15:43:09;0.50;1.00
13245;DHT22;6689;53.400;12.486;2024-01-07T15:45:38;0.60;1.00
13245;DHT22;6689;53.400;12.486;2024-01-07T15:48:07;0.60;1.00
13245;DHT22;6689;53.400;12.486;2024-01-07T15:50:35;0.60;1.00
13245;DHT22;6689;53.400;12.486;2024-01-07T15:53:02;0.60;1.00
13245;DHT22;6689;53.400;12.486;2024-01-07T15:55:30;0.60;1.00
13245;DHT22;6689;53.400;12.486;2024-01-07T15:57:57;0.60;1.00
13245;DHT22;6689;53.400;12.486;2024-01-07T16:00:24;0.60;1.00